< Typhoon 200124 2001 Season Typhoon 200126 >
Typhoon 200125 (FAXAI)
General InformationTrack Information on Google MapsDetailed Wind InformationList of All Images || Disaster Info.ResourceGoogle EarthGE AnimationAtom FeedGeoJSON
Detalied Best Track (Time Zone = UTC)
Year Month Day Hour Lat. Long. Pressure (hPa) Wind (kt) Class Image Chart
2001 12 13 18 4.9 162.3 1006 0 2 Image Chart
2001 12 14 00 5.0 162.2 1008 0 2 Image Chart
2001 12 14 06 5.0 162.0 1004 0 2 Image Chart
2001 12 14 12 5.0 161.9 1004 0 2 Image Chart
2001 12 14 18 4.9 161.9 1002 0 2 Image Chart
2001 12 15 00 4.8 162.3 1002 0 2 Image Chart
2001 12 15 06 5.1 162.3 1000 0 2 Image Chart
2001 12 15 12 5.3 161.9 1002 0 2 Image Chart
2001 12 15 18 5.3 161.9 1000 0 2 Image Chart
2001 12 16 00 5.4 161.7 1002 0 2 Image Chart
2001 12 16 06 5.5 161.6 1000 0 2 Image Chart
2001 12 16 12 5.5 161.6 1000 0 2 Image Chart
2001 12 16 18 5.5 161.6 998 35 3 Image Chart
2001 12 17 00 5.6 161.6 998 35 3 Image Chart
2001 12 17 06 5.8 161.3 994 40 3 Image Chart
2001 12 17 12 5.9 161.1 994 40 3 Image Chart
2001 12 17 18 5.9 161.0 992 40 3 Image Chart
2001 12 18 00 5.9 161.0 992 40 3 Image Chart
2001 12 18 06 5.9 161.0 992 40 3 Image Chart
2001 12 18 12 5.7 161.5 992 40 3 Image Chart
2001 12 18 18 5.8 162.0 990 45 3 Image Chart
2001 12 19 00 6.1 162.1 990 45 3 Image Chart
2001 12 19 06 6.1 162.2 990 45 3 Image Chart
2001 12 19 12 6.2 162.2 990 45 3 Image Chart
2001 12 19 18 6.3 162.3 990 45 3 Image Chart
2001 12 20 00 7.2 161.5 990 45 3 Image Chart
2001 12 20 06 7.8 160.6 985 50 4 Image Chart
2001 12 20 12 8.2 159.8 985 50 4 Image Chart
2001 12 20 18 8.6 159.2 975 60 4 Image Chart
2001 12 21 00 9.1 158.4 970 65 5 Image Chart
2001 12 21 06 9.9 157.8 965 70 5 Image Chart
2001 12 21 12 10.6 156.8 955 75 5 Image Chart
2001 12 21 18 11.0 155.9 945 85 5 Image Chart
2001 12 22 00 11.7 155.1 935 90 5 Image Chart
2001 12 22 06 12.4 153.9 925 95 5 Image Chart
2001 12 22 12 13.1 152.7 920 100 5 Image Chart
2001 12 22 18 13.9 151.5 915 105 5 Image Chart
2001 12 23 00 14.8 150.2 915 105 5 Image Chart
2001 12 23 06 15.7 149.1 925 95 5 Image Chart
2001 12 23 12 16.4 148.1 940 85 5 Image Chart
2001 12 23 18 17.3 147.2 950 80 5 Image Chart
2001 12 24 00 18.2 146.5 950 80 5 Image Chart
2001 12 24 06 19.2 146.3 950 80 5 Image Chart
2001 12 24 12 20.2 146.8 955 75 5 Image Chart
2001 12 24 18 21.8 147.3 960 70 5 Image Chart
2001 12 25 00 23.3 149.0 965 65 5 Image Chart
2001 12 25 06 25.3 151.5 970 60 4 Image Chart
2001 12 25 12 27.2 154.4 980 55 4 Image Chart
2001 12 25 18 29.6 158.5 985 50 4 Image Chart
2001 12 26 00 31.8 162.3 992 0 6 Image Chart
2001 12 26 06 32.1 166.2 996 0 6 Image Chart
2001 12 26 12 32.1 168.5 1000 0 6 Image Chart
Japan Meteorological Agency Best Track Data | Correction Date : 2002-01-24
< Typhoon 200124 2001 Season Typhoon 200126 >

Help